Time;durP1;ratioP1;P1;durP2;ratioP2;P2;SDS_P1;SDS_P2;PMS_P1;PMS_P2;Temp;Humidity;BMP_temperature;BMP_pressure;BME280_temperature;BME280_humidity;BME280_pressure;Samples;Min_cycle;Max_cycle;Signal;HPM_P1;HPM_P2
2022/11/24 00:00:17;;;;;;;677.97;620.28;;;;;;;3.35;73.75;100308.56;692971;28;23470;-64
2022/11/24 00:00:38;;;;;;;673.63;616.00;;;;;;;3.35;73.55;100319.25;692067;28;22457;-65
2022/11/24 00:01:03;;;;;;;667.38;609.88;;;;;;;3.34;73.74;100306.88;692852;28;21535;-64
2022/11/24 00:01:27;;;;;;;647.75;590.83;;;;;;;3.33;73.46;100307.88;689774;28;116127;-64
2022/11/24 00:01:48;;;;;;;670.97;613.35;;;;;;;3.35;73.47;100316.59;691257;28;69367;-65
2022/11/24 00:02:10;;;;;;;655.22;598.03;;;;;;;3.35;73.60;100314.75;692112;28;46372;-65
2022/11/24 00:02:31;;;;;;;649.05;592.08;;;;;;;3.34;73.45;100312.22;692873;28;22404;-65
2022/11/24 00:02:52;;;;;;;668.70;611.20;;;;;;;3.33;73.74;100319.41;692998;28;21469;-65
2022/11/24 00:03:13;;;;;;;648.92;591.97;;;;;;;3.33;73.68;100310.56;692147;28;45263;-65
2022/11/24 00:03:36;;;;;;;667.28;610.00;;;;;;;3.34;73.67;100314.88;693079;28;21486;-65
2022/11/24 00:03:59;;;;;;;661.20;603.97;;;;;;;3.33;73.95;100315.88;691241;28;69401;-64
2022/11/24 00:04:20;;;;;;;654.65;597.47;;;;;;;3.33;73.85;100315.88;691851;28;46302;-64
2022/11/24 00:04:42;;;;;;;656.92;599.70;;;;;;;3.33;73.90;100318.56;692074;28;44369;-65
2022/11/24 00:05:04;;;;;;;652.58;595.47;;;;;;;3.33;73.82;100319.41;691935;28;46327;-65
2022/11/24 00:05:26;;;;;;;640.13;583.33;;;;;;;3.34;73.83;100322.91;692041;28;44309;-65
2022/11/24 00:05:47;;;;;;;651.67;594.55;;;;;;;3.32;73.66;100328.38;691028;28;46344;-64
2022/11/24 00:06:10;;;;;;;649.90;592.90;;;;;;;3.30;73.56;100318.84;692168;28;21220;-65
2022/11/24 00:06:34;;;;;;;646.15;589.25;;;;;;;3.32;73.77;100319.53;691467;28;70555;-65
2022/11/24 00:06:55;;;;;;;642.17;585.28;;;;;;;3.32;73.75;100327.53;690524;28;90333;-66
2022/11/24 00:07:16;;;;;;;647.85;590.75;;;;;;;3.31;73.94;100326.72;692720;28;22389;-65
2022/11/24 00:07:38;;;;;;;653.65;596.53;;;;;;;3.31;73.78;100324.03;692954;28;21539;-65
2022/11/24 00:07:59;;;;;;;629.90;573.22;;;;;;;3.31;73.77;100323.19;691880;28;46260;-65
2022/11/24 00:08:20;;;;;;;632.60;575.97;;;;;;;3.32;74.13;100324.88;692937;28;22387;-64
2022/11/24 00:08:44;;;;;;;676.80;619.15;;;;;;;3.31;73.98;100323.19;692806;28;21381;-65
2022/11/24 00:09:06;;;;;;;648.15;591.10;;;;;;;3.32;74.21;100323.03;689540;28;115175;-65
2022/11/24 00:09:27;;;;;;;638.95;582.15;;;;;;;3.32;74.21;100325.69;692197;28;45258;-64
2022/11/24 00:09:48;;;;;;;662.95;605.72;;;;;;;3.33;73.96;100322.06;692933;28;23369;-64
2022/11/24 00:10:10;;;;;;;663.95;606.70;;;;;;;3.33;74.13;100318.56;691992;28;45088;-65
2022/11/24 00:10:32;;;;;;;667.20;609.88;;;;;;;3.31;74.20;100316.03;691141;28;44416;-65
2022/11/24 00:10:54;;;;;;;659.22;601.92;;;;;;;3.34;74.31;100317.56;692881;28;21366;-65
2022/11/24 00:11:18;;;;;;;671.95;614.40;;;;;;;3.34;73.97;100322.91;692398;28;69449;-64
2022/11/24 00:11:40;;;;;;;649.50;592.53;;;;;;;3.34;74.24;100318.41;692095;28;69403;-65
2022/11/24 00:12:01;;;;;;;658.85;601.65;;;;;;;3.34;74.08;100321.09;691112;28;69228;-64
2022/11/24 00:12:23;;;;;;;669.38;611.88;;;;;;;3.34;74.16;100325.56;692806;28;21506;-65
2022/11/24 00:12:44;;;;;;;666.92;609.42;;;;;;;3.33;74.21;100316.72;689902;28;22396;-64
2022/11/24 00:13:05;;;;;;;676.83;619.10;;;;;;;3.34;74.11;100322.91;689352;28;46206;-65
2022/11/24 00:13:28;;;;;;;657.88;600.67;;;;;;;3.35;74.24;100320.09;690105;28;23435;-66
2022/11/24 00:13:49;;;;;;;643.67;586.65;;;;;;;3.35;74.46;100320.09;689144;28;46135;-65
2022/11/24 00:14:11;;;;;;;654.42;597.17;;;;;;;3.34;74.17;100318.41;689044;28;46326;-65
2022/11/24 00:14:33;;;;;;;666.95;609.47;;;;;;;3.35;74.29;100314.75;690210;28;44400;-65
2022/11/24 00:14:55;;;;;;;671.28;613.70;;;;;;;3.37;74.12;100315.47;692047;28;46445;-64
2022/11/24 00:15:17;;;;;;;658.40;601.05;;;;;;;3.37;74.20;100323.47;691053;28;69434;-64
2022/11/24 00:15:38;;;;;;;646.22;589.33;;;;;;;3.37;74.34;100323.47;691575;28;21550;-65
2022/11/24 00:16:07;;;;;;;632.90;576.10;;;;;;;3.37;74.17;100320.81;691937;28;46291;-64
2022/11/24 00:16:31;;;;;;;665.33;607.75;;;;;;;3.38;74.19;100317.13;688580;28;137991;-64
2022/11/24 00:16:52;;;;;;;669.97;612.45;;;;;;;3.37;74.33;100315.47;690156;28;91980;-64
2022/11/24 00:17:14;;;;;;;664.63;607.28;;;;;;;3.38;74.08;100318.97;691476;28;44336;-65
2022/11/24 00:17:35;;;;;;;662.90;605.63;;;;;;;3.36;74.30;100324.44;693133;28;22421;-65
2022/11/24 00:17:56;;;;;;;642.58;585.80;;;;;;;3.38;74.30;100327.81;692847;28;22402;-64
2022/11/24 00:18:19;;;;;;;660.78;603.53;;;;;;;3.39;73.99;100321.50;691936;28;45221;-65
2022/11/24 00:18:43;;;;;;;651.83;594.67;;;;;;;3.41;73.98;100324.03;692056;28;46348;-65
2022/11/24 00:19:07;;;;;;;631.42;574.83;;;;;;;3.39;74.04;100320.66;687902;28;90531;-64
2022/11/24 00:19:29;;;;;;;648.45;591.38;;;;;;;3.41;74.04;100324.88;686681;28;115106;-65
2022/11/24 00:19:51;;;;;;;649.22;592.25;;;;;;;3.42;74.04;100321.22;689525;28;44533;-65
2022/11/24 00:20:13;;;;;;;645.85;589.05;;;;;;;3.42;73.84;100325.72;690721;28;44117;-65
2022/11/24 00:20:34;;;;;;;649.17;592.05;;;;;;;3.42;73.92;100318.56;691647;28;23464;-64
2022/11/24 00:20:55;;;;;;;674.53;616.85;;;;;;;3.43;73.83;100324.72;692116;28;46488;-64
2022/11/24 00:21:18;;;;;;;664.20;607.00;;;;;;;3.44;73.85;100323.75;692395;28;22416;-64
2022/11/24 00:21:40;;;;;;;671.30;613.83;;;;;;;3.44;73.91;100318.41;691206;28;69438;-66
2022/11/24 00:22:01;;;;;;;662.03;604.67;;;;;;;3.45;73.71;100322.78;692217;28;45255;-65
2022/11/24 00:22:22;;;;;;;656.22;599.05;;;;;;;3.45;73.87;100312.09;692831;28;21475;-65
2022/11/24 00:22:45;;;;;;;648.78;591.80;;;;;;;3.47;73.90;100319.97;691970;28;46826;-64
2022/11/24 00:23:07;;;;;;;656.65;599.67;;;;;;;3.46;73.76;100319.09;691350;28;69140;-65
2022/11/24 00:23:28;;;;;;;670.10;612.75;;;;;;;3.47;73.79;100318.13;691280;28;23425;-64
2022/11/24 00:23:50;;;;;;;672.63;615.15;;;;;;;3.46;73.89;100319.09;692015;28;22213;-65
2022/11/24 00:24:11;;;;;;;670.05;612.63;;;;;;;3.45;73.80;100320.09;691734;28;46269;-66
2022/11/24 00:24:34;;;;;;;659.10;601.83;;;;;;;3.46;73.97;100318.28;691635;28;44994;-66
2022/11/24 00:24:55;;;;;;;653.65;596.35;;;;;;;3.47;73.86;100319.97;691707;28;45216;-65
2022/11/24 00:25:17;;;;;;;651.42;594.25;;;;;;;3.47;73.89;100317.28;692375;28;23524;-65
2022/11/24 00:25:38;;;;;;;644.47;587.58;;;;;;;3.46;73.96;100326.28;688355;28;45258;-65
2022/11/24 00:26:05;;;;;;;655.05;597.90;;;;;;;3.47;73.93;100320.81;690249;28;22373;-65
2022/11/24 00:26:29;;;;;;;640.92;584.05;;;;;;;3.46;74.07;100324.44;685919;28;137945;-65
2022/11/24 00:26:50;;;;;;;652.58;595.42;;;;;;;3.47;73.86;100325.31;688245;28;69682;-64
2022/11/24 00:27:11;;;;;;;656.40;599.17;;;;;;;3.46;73.94;100321.78;691942;28;44361;-65
2022/11/24 00:27:33;;;;;;;648.17;591.15;;;;;;;3.45;74.07;100317.44;692826;28;23453;-66
2022/11/24 00:27:55;;;;;;;664.90;607.28;;;;;;;3.45;73.96;100322.78;687530;28;46293;-66
2022/11/24 00:28:17;;;;;;;639.72;582.80;;;;;;;3.46;73.97;100323.63;688331;28;44360;-66
2022/11/24 00:28:38;;;;;;;651.95;594.72;;;;;;;3.45;74.19;100322.78;690056;28;22385;-65
2022/11/24 00:29:01;;;;;;;649.38;592.35;;;;;;;3.46;74.12;100321.78;691935;28;44988;-65
2022/11/24 00:29:23;;;;;;;642.20;585.45;;;;;;;3.47;74.17;100326.13;691180;28;69427;-65
2022/11/24 00:29:45;;;;;;;656.63;599.65;;;;;;;3.45;74.13;100319.25;691978;28;46324;-65
2022/11/24 00:30:08;;;;;;;672.92;615.53;;;;;;;3.47;74.25;100318.13;692627;28;20985;-65
2022/11/24 00:30:29;;;;;;;655.45;598.42;;;;;;;3.47;74.12;100326.13;689766;28;92149;-65
2022/11/24 00:30:51;;;;;;;638.38;581.58;;;;;;;3.45;74.18;100320.09;692581;28;23505;-65
2022/11/24 00:31:18;;;;;;;645.13;588.15;;;;;;;3.47;74.11;100319.97;692987;28;21537;-65
2022/11/24 00:31:41;;;;;;;668.72;611.13;;;;;;;3.45;74.10;100320.09;688244;28;137725;-65
2022/11/24 00:32:04;;;;;;;641.63;584.83;;;;;;;3.46;73.90;100321.78;691384;28;67507;-65
2022/11/24 00:32:26;;;;;;;646.25;589.25;;;;;;;3.46;74.28;100326.28;690590;28;92301;-65
2022/11/24 00:32:49;;;;;;;664.47;607.05;;;;;;;3.46;74.23;100321.78;691871;28;46312;-65
2022/11/24 00:33:10;;;;;;;653.90;596.67;;;;;;;3.45;74.30;100319.25;691856;28;46302;-66
2022/11/24 00:33:31;;;;;;;645.80;588.85;;;;;;;3.45;74.20;100322.78;693032;28;21494;-66
2022/11/24 00:33:54;;;;;;;654.28;597.15;;;;;;;3.43;74.22;100322.91;692061;28;46331;-65
2022/11/24 00:34:17;;;;;;;661.78;604.50;;;;;;;3.46;74.49;100318.28;691337;28;69447;-65
2022/11/24 00:34:38;;;;;;;646.08;589.13;;;;;;;3.46;74.42;100323.63;691832;28;45160;-65
2022/11/24 00:34:59;;;;;;;657.65;600.22;;;;;;;3.46;74.66;100320.94;690471;28;22417;-66
2022/11/24 00:35:20;;;;;;;665.88;608.30;;;;;;;3.45;74.41;100330.78;689395;28;44365;-65
2022/11/24 00:35:42;;;;;;;659.20;601.90;;;;;;;3.47;74.41;100322.63;689428;28;21506;-65
2022/11/24 00:36:04;;;;;;;666.30;608.88;;;;;;;3.47;74.50;100320.81;690301;28;21543;-65
2022/11/24 00:36:27;;;;;;;650.53;593.50;;;;;;;3.45;74.44;100320.09;689934;28;69257;-65
2022/11/24 00:36:48;;;;;;;672.38;615.03;;;;;;;3.43;74.33;100314.03;691239;28;69405;-66
2022/11/24 00:37:11;;;;;;;654.00;597.00;;;;;;;3.45;74.35;100328.13;691781;28;22379;-66
2022/11/24 00:37:32;;;;;;;640.85;584.05;;;;;;;3.45;74.48;100319.25;691170;28;68310;-66
2022/11/24 00:37:54;;;;;;;662.28;604.92;;;;;;;3.45;74.55;100321.91;692538;28;23440;-65
2022/11/24 00:38:15;;;;;;;643.15;586.22;;;;;;;3.44;74.56;100318.41;691856;28;45124;-66
2022/11/24 00:38:37;;;;;;;655.03;597.92;;;;;;;3.46;73.90;100320.94;692716;28;22400;-65
2022/11/24 00:39:00;;;;;;;669.50;612.05;;;;;;;3.41;74.27;100319.53;691905;28;45266;-65
2022/11/24 00:39:22;;;;;;;663.75;606.47;;;;;;;3.46;74.47;100319.09;690369;28;92048;-65
2022/11/24 00:39:43;;;;;;;653.35;596.30;;;;;;;3.46;74.64;100320.94;692583;28;23414;-65
2022/11/24 00:40:06;;;;;;;658.15;600.95;;;;;;;3.47;74.48;100323.47;693009;28;22192;-65
2022/11/24 00:40:27;;;;;;;675.67;618.08;;;;;;;3.47;74.33;100319.97;691276;28;68386;-66
2022/11/24 00:40:50;;;;;;;671.80;614.25;;;;;;;3.48;74.37;100327.84;691400;28;44322;-66
2022/11/24 00:41:13;;;;;;;667.47;610.05;;;;;;;3.48;74.29;100318.97;691171;28;69662;-64
2022/11/24 00:41:36;;;;;;;674.97;617.30;;;;;;;3.48;74.23;100325.16;691154;28;69821;-65
2022/11/24 00:41:58;;;;;;;663.15;605.85;;;;;;;3.50;74.24;100322.34;691345;28;67094;-65
2022/11/24 00:42:19;;;;;;;668.38;611.00;;;;;;;3.50;74.21;100322.34;691109;28;69449;-66
2022/11/24 00:42:41;;;;;;;650.20;593.22;;;;;;;3.51;74.14;100324.88;692817;28;21540;-65
2022/11/24 00:43:02;;;;;;;671.33;613.78;;;;;;;3.51;74.25;100324.03;692723;28;21366;-66
2022/11/24 00:43:23;;;;;;;654.20;597.20;;;;;;;3.49;74.28;100324.16;691876;28;46309;-66
2022/11/24 00:43:46;;;;;;;650.90;594.00;;;;;;;3.50;74.24;100325.03;692851;28;22412;-65
2022/11/24 00:44:07;;;;;;;641.30;584.67;;;;;;;3.50;74.09;100322.34;692154;28;45226;-65
2022/11/24 00:44:28;;;;;;;652.05;595.08;;;;;;;3.50;74.02;100317.84;688724;28;44183;-65
2022/11/24 00:44:49;;;;;;;674.20;616.55;;;;;;;3.52;74.31;100320.38;687049;28;22379;-66
2022/11/24 00:45:11;;;;;;;665.17;607.85;;;;;;;3.48;74.24;100322.50;687239;28;23471;-65
2022/11/24 00:45:33;;;;;;;663.65;606.25;;;;;;;3.50;74.26;100328.53;686244;28;21544;-66
2022/11/24 00:45:54;;;;;;;659.75;602.35;;;;;;;3.49;74.22;100324.16;682934;28;67468;-65
2022/11/24 00:46:15;;;;;;;661.60;604.30;;;;;;;3.51;74.34;100321.34;687067;28;22385;-65
2022/11/24 00:46:37;;;;;;;659.53;602.30;;;;;;;3.49;74.12;100320.66;690605;28;21524;-65
2022/11/24 00:46:59;;;;;;;661.72;604.40;;;;;;;3.48;74.31;100322.50;689166;28;45361;-65
2022/11/24 00:47:21;;;;;;;677.90;620.25;;;;;;;3.49;74.33;100324.16;689095;28;45341;-64
2022/11/24 00:47:42;;;;;;;673.92;616.33;;;;;;;3.50;74.35;100325.03;689852;28;22077;-65
2022/11/24 00:48:03;;;;;;;661.88;604.58;;;;;;;3.49;74.41;100318.81;689560;28;23436;-65
2022/11/24 00:48:25;;;;;;;662.38;605.13;;;;;;;3.52;74.31;100320.38;689130;28;46314;-65
2022/11/24 00:48:47;;;;;;;652.28;595.28;;;;;;;3.52;74.28;100323.03;690539;28;22229;-65
2022/11/24 00:49:08;;;;;;;659.53;602.28;;;;;;;3.52;74.14;100320.38;692198;28;46382;-65
2022/11/24 00:49:29;;;;;;;644.25;587.40;;;;;;;3.51;74.20;100319.53;692533;28;22381;-65
2022/11/24 00:49:51;;;;;;;656.08;598.90;;;;;;;3.53;74.39;100324.75;692628;28;22362;-65
2022/11/24 00:50:13;;;;;;;658.55;601.58;;;;;;;3.52;74.41;100317.72;692847;28;23357;-64
2022/11/24 00:50:34;;;;;;;669.25;611.97;;;;;;;3.53;74.14;100322.06;690632;28;46510;-65
2022/11/24 00:50:57;;;;;;;677.95;620.22;;;;;;;3.52;74.23;100326.56;689901;28;46354;-66
2022/11/24 00:51:19;;;;;;;654.88;597.78;;;;;;;3.53;74.42;100319.41;691978;28;46323;-64
2022/11/24 00:51:41;;;;;;;664.95;607.60;;;;;;;3.51;74.30;100316.00;690973;28;69295;-65
2022/11/24 00:52:03;;;;;;;661.40;604.13;;;;;;;3.53;74.23;100325.56;692165;28;46369;-65
2022/11/24 00:52:24;;;;;;;653.25;596.22;;;;;;;3.53;74.38;100328.25;691977;28;44310;-65
2022/11/24 00:52:46;;;;;;;655.80;598.60;;;;;;;3.53;74.41;100328.25;692710;28;22382;-66
2022/11/24 00:53:08;;;;;;;659.40;602.08;;;;;;;3.52;74.14;100323.88;692717;28;23498;-64
2022/11/24 00:53:29;;;;;;;674.03;616.38;;;;;;;3.52;74.35;100325.72;691359;28;69453;-64
2022/11/24 00:53:52;;;;;;;666.38;608.90;;;;;;;3.50;74.45;100330.38;692626;28;22204;-64
2022/11/24 00:54:14;;;;;;;669.20;611.70;;;;;;;3.50;74.51;100320.53;692045;28;45123;-65
2022/11/24 00:54:35;;;;;;;673.15;615.63;;;;;;;3.50;74.50;100323.19;688132;28;69221;-65
2022/11/24 00:54:56;;;;;;;664.03;606.63;;;;;;;3.50;74.50;100328.53;686982;28;23416;-65
2022/11/24 00:55:18;;;;;;;657.05;599.75;;;;;;;3.49;74.59;100321.50;687167;28;22438;-64
2022/11/24 00:55:39;;;;;;;660.95;603.78;;;;;;;3.49;74.45;100320.66;685568;28;45518;-65
2022/11/24 00:56:02;;;;;;;657.20;600.08;;;;;;;3.45;74.46;100314.78;689510;28;21359;-65
2022/11/24 00:56:26;;;;;;;684.97;627.22;;;;;;;3.48;74.47;100322.50;688276;28;92158;-66
2022/11/24 00:56:47;;;;;;;665.05;607.90;;;;;;;3.48;74.60;100324.31;691206;28;69448;-65
2022/11/24 00:57:09;;;;;;;659.72;602.60;;;;;;;3.48;74.89;100322.50;689542;28;21504;-65
2022/11/24 00:57:33;;;;;;;680.95;623.20;;;;;;;3.48;74.85;100319.81;688296;28;69288;-65
2022/11/24 00:57:54;;;;;;;657.33;600.10;;;;;;;3.49;74.65;100329.50;688024;28;69402;-65
2022/11/24 00:58:16;;;;;;;654.20;597.05;;;;;;;3.48;74.66;100313.63;689140;28;45266;-65
2022/11/24 00:58:37;;;;;;;652.25;595.20;;;;;;;3.50;74.72;100322.34;690004;28;23502;-64
2022/11/24 00:58:59;;;;;;;648.10;591.17;;;;;;;3.49;74.72;100318.81;690834;28;21346;-65
2022/11/24 00:59:20;;;;;;;665.33;607.90;;;;;;;3.51;74.57;100324.88;691146;28;69403;-65
2022/11/24 00:59:42;;;;;;;659.95;602.75;;;;;;;3.50;74.69;100317.84;692715;28;21511;-66
2022/11/24 01:00:05;;;;;;;653.97;596.88;;;;;;;3.50;74.61;100314.34;692707;28;22231;-64
2022/11/24 01:00:26;;;;;;;660.05;602.75;;;;;;;3.49;74.60;100318.81;690579;28;69223;-65
2022/11/24 01:00:48;;;;;;;676.72;619.03;;;;;;;3.48;74.75;100319.81;691079;28;44378;-65
2022/11/24 01:01:14;;;;;;;663.33;606.03;;;;;;;3.49;74.61;100318.81;692024;28;46373;-66
2022/11/24 01:01:35;;;;;;;651.75;594.70;;;;;;;3.50;74.53;100320.53;688943;28;136348;-64
2022/11/24 01:01:56;;;;;;;660.20;603.00;;;;;;;3.49;74.63;100315.31;692790;28;21183;-65
2022/11/24 01:02:19;;;;;;;665.45;608.05;;;;;;;3.48;74.64;100319.81;692657;28;22536;-66
2022/11/24 01:02:40;;;;;;;665.17;607.83;;;;;;;3.47;74.66;100320.81;690559;28;69469;-65
2022/11/24 01:03:01;;;;;;;659.88;602.75;;;;;;;3.47;74.53;100317.28;689423;28;21321;-65
2022/11/24 01:03:23;;;;;;;658.20;601.30;;;;;;;3.47;74.74;100319.97;689839;28;23617;-64
2022/11/24 01:03:45;;;;;;;670.28;612.88;;;;;;;3.47;74.72;100323.47;689893;28;21547;-65
2022/11/24 01:04:06;;;;;;;668.40;611.05;;;;;;;3.47;74.78;100318.13;688951;28;45244;-65
2022/11/24 01:04:28;;;;;;;683.00;625.20;;;;;;;3.47;74.59;100318.13;688796;28;46599;-65
2022/11/24 01:04:49;;;;;;;668.58;610.92;;;;;;;3.48;74.47;100316.28;690275;28;23467;-65
2022/11/24 01:05:10;;;;;;;663.72;606.25;;;;;;;3.48;74.64;100319.81;692789;28;22460;-64
2022/11/24 01:05:35;;;;;;;661.58;604.33;;;;;;;3.48;74.76;100317.16;691082;28;44368;-65
2022/11/24 01:06:01;;;;;;;655.83;598.60;;;;;;;3.48;74.55;100319.81;689633;28;115123;-64
2022/11/24 01:06:25;;;;;;;655.42;598.22;;;;;;;3.47;74.62;100323.47;685956;28;137977;-65
2022/11/24 01:06:47;;;;;;;661.50;604.22;;;;;;;3.47;74.53;100325.31;688448;28;69222;-65
2022/11/24 01:07:08;;;;;;;670.70;613.22;;;;;;;3.47;74.57;100320.81;690112;28;45234;-65
2022/11/24 01:07:30;;;;;;;669.58;612.15;;;;;;;3.41;74.80;100314.19;691959;28;45266;-65
2022/11/24 01:07:51;;;;;;;667.40;609.95;;;;;;;3.45;74.92;100313.91;692742;28;23385;-65
2022/11/24 01:08:12;;;;;;;674.78;617.22;;;;;;;3.45;74.68;100316.56;692022;28;45281;-65
2022/11/24 01:08:36;;;;;;;679.72;622.15;;;;;;;3.46;74.99;100326.28;692691;28;21589;-64
2022/11/24 01:08:57;;;;;;;677.83;620.15;;;;;;;3.46;74.84;100326.28;690271;28;92026;-64
2022/11/24 01:09:19;;;;;;;690.40;632.53;;;;;;;3.44;74.87;100318.41;692784;28;22314;-64
2022/11/24 01:09:44;;;;;;;664.05;606.92;;;;;;;3.44;74.78;100326.41;691923;28;44211;-65
2022/11/24 01:10:07;;;;;;;652.85;595.95;;;;;;;3.45;74.61;100320.09;689607;28;113580;-64
2022/11/24 01:10:29;;;;;;;643.28;586.50;;;;;;;3.46;74.95;100323.63;690162;28;69429;-64
2022/11/24 01:10:50;;;;;;;668.53;611.00;;;;;;;3.46;74.86;100320.94;691853;28;45589;-65
2022/11/24 01:11:13;;;;;;;671.85;614.25;;;;;;;3.45;74.86;100317.44;692685;28;23507;-64
2022/11/24 01:12:13;;;;;;;672.58;615.08;;;;;;;3.46;74.71;100326.28;687792;28;137609;-65
2022/11/24 01:12:34;;;;;;;667.80;610.38;;;;;;;3.42;74.93;100310.53;691756;28;46223;-64
2022/11/24 01:12:56;;;;;;;651.08;594.15;;;;;;;3.46;74.92;100315.59;691980;28;45246;-65
2022/11/24 01:13:17;;;;;;;650.65;593.80;;;;;;;3.46;74.79;100318.28;692850;28;21521;-65
2022/11/24 01:13:40;;;;;;;624.42;568.22;;;;;;;3.44;74.80;100315.75;692720;28;23551;-65
2022/11/24 01:14:01;;;;;;;633.30;576.80;;;;;;;3.45;74.86;100316.56;691235;28;67487;-65
2022/11/24 01:14:23;;;;;;;647.22;590.33;;;;;;;3.45;74.79;100316.56;692583;28;23390;-65
2022/11/24 01:14:44;;;;;;;645.75;588.85;;;;;;;3.45;74.75;100317.44;691045;28;69467;-65
2022/11/24 01:15:07;;;;;;;648.17;591.15;;;;;;;3.45;74.81;100320.09;692634;28;23418;-64
2022/11/24 01:15:29;;;;;;;647.60;590.80;;;;;;;3.46;74.80;100320.94;687729;28;67433;-65
2022/11/24 01:15:50;;;;;;;644.40;587.78;;;;;;;3.45;74.78;100328.13;689892;28;46322;-64
2022/11/24 01:16:16;;;;;;;645.60;588.90;;;;;;;3.45;74.74;100325.44;692658;28;22384;-65
2022/11/24 01:16:37;;;;;;;639.60;582.83;;;;;;;3.45;74.75;100322.78;688476;28;137890;-65
2022/11/24 01:16:59;;;;;;;620.67;564.42;;;;;;;3.45;74.76;100325.44;692660;28;23478;-64
2022/11/24 01:17:21;;;;;;;622.47;566.22;;;;;;;3.45;74.84;100316.56;691946;28;46322;-65
2022/11/24 01:17:42;;;;;;;650.22;593.33;;;;;;;3.46;74.80;100319.09;691662;28;46334;-64
2022/11/24 01:18:04;;;;;;;646.00;589.30;;;;;;;3.46;74.67;100328.94;692852;28;23391;-64
2022/11/24 01:18:25;;;;;;;627.20;570.88;;;;;;;3.46;74.79;100331.63;691896;28;46159;-65
2022/11/24 01:18:47;;;;;;;630.53;573.97;;;;;;;3.45;74.59;100330.78;692507;28;22229;-65
2022/11/24 01:19:09;;;;;;;648.90;591.90;;;;;;;3.45;74.78;100320.09;690461;28;67292;-65
2022/11/24 01:19:30;;;;;;;629.08;572.65;;;;;;;3.44;74.71;100329.09;689864;28;22233;-65
2022/11/24 01:19:51;;;;;;;616.70;560.50;;;;;;;3.44;74.71;100323.75;690104;28;23478;-64
2022/11/24 01:20:14;;;;;;;613.15;557.15;;;;;;;3.43;74.92;100328.25;691785;28;21598;-65
2022/11/24 01:20:36;;;;;;;607.15;551.20;;;;;;;3.43;74.99;100327.41;691136;28;46339;-64
2022/11/24 01:20:57;;;;;;;627.78;571.25;;;;;;;3.44;74.93;100331.75;691638;28;46306;-64
2022/11/24 01:21:19;;;;;;;639.15;582.58;;;;;;;3.44;75.06;100331.75;691881;28;33434;-65
2022/11/24 01:21:42;;;;;;;660.45;603.45;;;;;;;3.44;74.78;100329.09;691249;28;44392;-65
2022/11/24 01:22:03;;;;;;;649.05;592.22;;;;;;;3.43;74.94;100328.25;692098;28;46319;-64
2022/11/24 01:22:26;;;;;;;640.08;583.35;;;;;;;3.42;74.95;100329.22;691863;28;46317;-64
2022/11/24 01:22:48;;;;;;;624.70;568.33;;;;;;;3.41;74.85;100327.53;691126;28;69396;-64
2022/11/24 01:23:10;;;;;;;620.47;564.17;;;;;;;3.42;74.96;100331.91;692673;28;23331;-64
2022/11/24 01:23:31;;;;;;;633.65;577.15;;;;;;;3.42;74.97;100331.06;691238;28;67460;-65
2022/11/24 01:23:52;;;;;;;624.22;567.97;;;;;;;3.40;75.03;100333.88;692718;28;21560;-64
2022/11/24 01:24:14;;;;;;;623.13;566.88;;;;;;;3.41;75.35;100340.06;692500;28;22207;-64
2022/11/24 01:24:36;;;;;;;632.22;575.83;;;;;;;3.39;75.40;100342.88;692320;28;44238;-63
2022/11/24 01:24:58;;;;;;;643.25;586.30;;;;;;;3.37;75.23;100339.50;694206;28;44032;-65
2022/11/24 01:25:19;;;;;;;639.30;582.53;;;;;;;3.37;75.23;100341.31;694771;28;45205;-65
2022/11/24 01:25:40;;;;;;;626.88;570.50;;;;;;;3.36;75.32;100339.63;694639;28;21625;-65
2022/11/24 01:26:03;;;;;;;622.47;566.15;;;;;;;3.34;75.16;100342.44;695597;28;22399;-64
2022/11/24 01:26:26;;;;;;;629.58;573.20;;;;;;;3.34;75.26;100347.78;692966;28;93219;-65
2022/11/24 01:26:48;;;;;;;624.10;567.72;;;;;;;3.33;75.30;100346.09;691684;28;44359;-65
2022/11/24 01:27:10;;;;;;;629.88;573.50;;;;;;;3.32;75.50;100344.38;690712;28;69458;-64
2022/11/24 01:27:31;;;;;;;634.97;578.50;;;;;;;3.32;75.43;100343.56;692683;28;23468;-64
2022/11/24 01:27:53;;;;;;;635.97;579.53;;;;;;;3.31;75.40;100341.84;692657;28;22335;-64
2022/11/24 01:28:15;;;;;;;623.03;566.75;;;;;;;3.28;75.41;100339.50;691605;28;45252;-65
2022/11/24 01:28:36;;;;;;;631.33;574.83;;;;;;;3.27;75.41;100341.31;692674;28;22395;-64
2022/11/24 01:28:58;;;;;;;643.13;586.38;;;;;;;3.27;75.42;100338.63;691877;28;45241;-65
2022/11/24 01:29:20;;;;;;;645.35;588.53;;;;;;;3.25;75.96;100340.63;695327;28;22376;-65
2022/11/24 01:29:41;;;;;;;629.38;572.95;;;;;;;3.27;75.67;100343.13;693838;28;69242;-65
2022/11/24 01:30:03;;;;;;;638.03;581.40;;;;;;;3.26;75.53;100339.63;695556;28;23644;-64
2022/11/24 01:30:25;;;;;;;632.88;576.38;;;;;;;3.25;75.67;100336.09;694731;28;46328;-64
2022/11/24 01:30:56;;;;;;;632.10;575.58;;;;;;;3.24;75.89;100336.25;694492;28;21335;-65
2022/11/24 01:31:18;;;;;;;623.20;566.85;;;;;;;3.25;75.92;100337.94;691328;28;137413;-65
2022/11/24 01:31:40;;;;;;;630.80;574.33;;;;;;;3.26;76.21;100336.97;694583;28;46335;-64
2022/11/24 01:32:01;;;;;;;626.20;569.85;;;;;;;3.25;75.97;100335.28;691458;28;45495;-65
2022/11/24 01:32:22;;;;;;;632.13;575.60;;;;;;;3.27;76.12;100335.13;692416;28;22372;-64
2022/11/24 01:32:44;;;;;;;613.67;557.58;;;;;;;3.27;76.13;100337.81;692580;28;21366;-65
2022/11/24 01:33:06;;;;;;;636.30;579.72;;;;;;;3.27;76.24;100335.13;690970;28;67474;-64
2022/11/24 01:33:27;;;;;;;644.50;587.88;;;;;;;3.26;76.13;100336.97;692104;28;21527;-65
2022/11/24 01:33:48;;;;;;;641.65;585.00;;;;;;;3.27;76.01;100335.13;693027;28;21287;-65
2022/11/24 01:34:11;;;;;;;622.75;566.53;;;;;;;3.27;76.26;100333.31;691952;28;46154;-64
2022/11/24 01:34:33;;;;;;;611.55;555.55;;;;;;;3.28;76.25;100336.84;690990;28;69204;-65
2022/11/24 01:34:54;;;;;;;628.22;571.63;;;;;;;3.27;76.13;100343.13;694429;28;23309;-64
2022/11/24 01:35:15;;;;;;;640.38;583.47;;;;;;;3.27;76.28;100340.47;695659;28;18399;-65
2022/11/24 01:35:36;;;;;;;647.83;590.75;;;;;;;3.25;76.24;100340.63;693544;28;45213;-65
2022/11/24 01:35:59;;;;;;;653.53;596.42;;;;;;;3.24;76.37;100337.09;695429;28;22388;-64
2022/11/24 01:36:20;;;;;;;644.45;587.60;;;;;;;3.27;76.20;100340.47;694619;28;44397;-65
2022/11/24 01:36:42;;;;;;;657.85;600.67;;;;;;;3.26;76.14;100344.97;694537;28;46345;-65
2022/11/24 01:37:03;;;;;;;667.15;609.67;;;;;;;3.27;76.27;100337.81;695457;28;22252;-65
2022/11/24 01:37:24;;;;;;;674.38;616.80;;;;;;;3.27;76.24;100343.97;691810;28;44358;-65
2022/11/24 01:37:47;;;;;;;661.15;603.85;;;;;;;3.29;76.41;100338.50;692587;28;23315;-64
2022/11/24 01:38:08;;;;;;;666.38;608.88;;;;;;;3.29;76.27;100344.69;693184;28;69198;-64
2022/11/24 01:38:29;;;;;;;656.30;599.00;;;;;;;3.29;76.26;100347.38;695435;28;22412;-66
2022/11/24 01:38:50;;;;;;;664.72;607.40;;;;;;;3.29;76.15;100338.50;695343;28;22456;-66
2022/11/24 01:39:12;;;;;;;663.92;606.75;;;;;;;3.29;76.38;100341.16;695506;28;23545;-65
2022/11/24 01:39:34;;;;;;;676.72;619.20;;;;;;;3.31;76.39;100344.53;695239;28;22412;-65
2022/11/24 01:39:55;;;;;;;659.40;602.10;;;;;;;3.30;76.37;100337.53;694703;28;46246;-64
2022/11/24 01:40:17;;;;;;;651.08;594.13;;;;;;;3.30;76.36;100342.88;695451;28;22307;-64
2022/11/24 01:40:38;;;;;;;659.20;602.03;;;;;;;3.29;76.18;100331.34;694633;28;21525;-65